createdAt,value
2023-05-16T00:01:10.218Z,2.00
2023-05-16T00:04:13.648Z,1.87
2023-05-16T00:07:16.885Z,2.00
2023-05-16T00:10:20.230Z,2.43
2023-05-16T00:13:26.309Z,1.90
2023-05-16T00:16:30.948Z,1.70
2023-05-16T00:19:34.388Z,2.67
2023-05-16T00:22:37.562Z,2.57
2023-05-16T00:25:40.776Z,2.10
2023-05-16T00:28:44.280Z,2.60
2023-05-16T00:31:48.824Z,2.30
2023-05-16T00:34:52.211Z,2.30
2023-05-16T00:37:55.970Z,2.30
2023-05-16T00:40:59.054Z,2.03
2023-05-16T00:44:02.127Z,2.40
2023-05-16T00:47:07.132Z,2.17
2023-05-16T00:50:11.394Z,2.20
2023-05-16T00:53:14.622Z,2.43
2023-05-16T00:56:18.786Z,2.00
2023-05-16T00:59:21.949Z,2.47
2023-05-16T01:02:29.097Z,2.63
2023-05-16T01:05:32.639Z,2.90
2023-05-16T01:08:35.741Z,2.80
2023-05-16T01:11:44.686Z,2.70
2023-05-16T01:14:55.415Z,3.10
2023-05-16T01:18:21.369Z,2.30
2023-05-16T01:21:40.248Z,2.67
2023-05-16T01:24:58.451Z,3.33
2023-05-16T01:28:03.818Z,2.60
2023-05-16T01:31:07.514Z,2.87
2023-05-16T01:34:10.696Z,2.97
2023-05-16T01:37:20.470Z,2.80
2023-05-16T01:40:44.125Z,2.90
2023-05-16T01:43:53.505Z,2.70
2023-05-16T01:47:01.132Z,2.77
2023-05-16T01:50:09.640Z,3.10
2023-05-16T01:53:18.178Z,2.33
2023-05-16T01:56:22.956Z,3.50
2023-05-16T01:59:28.267Z,2.73
2023-05-16T02:02:32.595Z,3.30
2023-05-16T02:05:35.959Z,2.40
2023-05-16T02:08:39.110Z,2.77
2023-05-16T02:11:42.157Z,2.20
2023-05-16T02:14:46.693Z,2.70
2023-05-16T02:17:49.917Z,2.80
2023-05-16T02:20:53.397Z,2.80
2023-05-16T02:23:56.485Z,3.00
2023-05-16T02:26:59.622Z,2.77
2023-05-16T02:30:05.611Z,2.93
2023-05-16T02:33:08.744Z,2.53
2023-05-16T02:36:12.262Z,2.33
2023-05-16T02:39:15.571Z,3.03
2023-05-16T02:42:18.704Z,3.20
2023-05-16T02:45:23.212Z,3.00
2023-05-16T02:48:26.356Z,2.40
2023-05-16T02:51:30.046Z,2.90
2023-05-16T02:54:33.119Z,3.33
2023-05-16T02:57:36.189Z,2.47
2023-05-16T03:00:40.843Z,2.57
2023-05-16T03:03:44.134Z,2.63
2023-05-16T03:06:47.473Z,2.60
2023-05-16T03:09:50.635Z,3.07
2023-05-16T03:12:53.824Z,2.87
2023-05-16T03:15:58.376Z,2.73
2023-05-16T03:19:01.698Z,3.30
2023-05-16T03:22:05.284Z,2.60
2023-05-16T03:25:08.999Z,2.60
2023-05-16T03:28:14.050Z,2.90
2023-05-16T03:31:19.807Z,2.60
2023-05-16T03:34:22.923Z,3.00
2023-05-16T03:37:26.544Z,2.70
2023-05-16T03:40:30.029Z,2.83
2023-05-16T03:43:33.207Z,3.83
2023-05-16T03:46:38.121Z,3.20
2023-05-16T03:49:41.714Z,3.10
2023-05-16T03:52:45.102Z,3.70
2023-05-16T03:55:48.853Z,3.30
2023-05-16T03:58:52.138Z,3.20
2023-05-16T04:01:56.718Z,3.53
2023-05-16T04:04:59.860Z,3.40
2023-05-16T04:08:03.034Z,3.23
2023-05-16T04:11:06.169Z,2.97
2023-05-16T04:14:09.287Z,3.80
2023-05-16T04:17:14.223Z,3.50
2023-05-16T04:20:18.085Z,4.10
2023-05-16T04:23:21.241Z,4.23
2023-05-16T04:26:24.894Z,4.20
2023-05-16T04:29:28.049Z,12.87
2023-05-16T04:32:35.391Z,27.90
2023-05-16T04:35:38.751Z,11.10
2023-05-16T04:38:41.910Z,5.50
2023-05-16T04:41:45.443Z,3.90
2023-05-16T04:44:48.983Z,3.90
2023-05-16T04:47:53.562Z,6.80
2023-05-16T04:50:57.300Z,4.20
2023-05-16T04:54:00.428Z,5.30
2023-05-16T04:57:03.527Z,3.67
2023-05-16T05:00:10.453Z,4.40
2023-05-16T05:03:14.944Z,4.03
2023-05-16T05:06:18.146Z,4.67
2023-05-16T05:09:21.400Z,4.17
2023-05-16T05:12:25.282Z,4.23
2023-05-16T05:15:28.719Z,2.70
2023-05-16T05:18:33.605Z,3.10
2023-05-16T05:21:37.772Z,2.80
2023-05-16T05:24:41.045Z,3.10
2023-05-16T05:27:44.185Z,3.20
2023-05-16T05:30:48.484Z,3.00
2023-05-16T05:33:52.932Z,3.37
2023-05-16T05:36:57.107Z,2.50
2023-05-16T05:40:00.538Z,3.00
2023-05-16T05:43:03.700Z,3.13
2023-05-16T05:46:07.755Z,3.20
2023-05-16T05:49:12.536Z,3.80
2023-05-16T05:52:15.644Z,4.03
2023-05-16T05:55:18.843Z,4.20
2023-05-16T05:58:23.243Z,4.67
2023-05-16T06:01:26.562Z,4.47
2023-05-16T06:04:31.104Z,4.10
2023-05-16T06:07:34.285Z,4.20
2023-05-16T06:10:37.415Z,3.97
2023-05-16T06:13:40.650Z,4.87
2023-05-16T06:16:43.842Z,4.37
2023-05-16T06:19:48.416Z,4.83
2023-05-16T06:22:51.520Z,3.63
2023-05-16T06:25:54.665Z,3.70
2023-05-16T06:28:57.814Z,4.47
2023-05-16T06:32:01.025Z,4.50
2023-05-16T06:35:06.445Z,4.93
2023-05-16T06:38:09.599Z,4.17
2023-05-16T06:41:12.732Z,4.27
2023-05-16T06:44:15.914Z,5.50
2023-05-16T06:47:19.054Z,5.90
2023-05-16T06:50:23.706Z,6.40
2023-05-16T06:53:27.396Z,5.83
2023-05-16T06:56:31.620Z,6.80
2023-05-16T06:59:35.132Z,7.40
2023-05-16T07:02:38.373Z,7.17
2023-05-16T07:05:42.993Z,8.57
2023-05-16T07:08:46.277Z,6.50
2023-05-16T07:11:49.571Z,7.23
2023-05-16T07:14:52.734Z,7.70
2023-05-16T07:17:55.945Z,7.37
2023-05-16T07:21:00.622Z,8.13
2023-05-16T07:24:03.862Z,8.77
2023-05-16T07:27:07.169Z,7.80
2023-05-16T07:30:12.556Z,8.57
2023-05-16T07:33:16.673Z,9.43
2023-05-16T07:36:21.338Z,6.93
2023-05-16T07:39:24.524Z,6.90
2023-05-16T07:42:27.719Z,6.40
2023-05-16T07:45:31.079Z,6.50
2023-05-16T07:48:34.410Z,6.37
2023-05-16T07:51:39.013Z,6.47
2023-05-16T07:54:42.180Z,6.43
2023-05-16T07:57:45.521Z,6.60
2023-05-16T08:00:48.751Z,6.50
2023-05-16T08:03:52.648Z,6.10
2023-05-16T08:06:57.155Z,6.07
2023-05-16T08:10:00.325Z,6.80
2023-05-16T08:13:04.121Z,7.50
2023-05-16T08:16:07.622Z,7.20
2023-05-16T08:19:10.833Z,7.30
2023-05-16T08:22:15.473Z,7.40
2023-05-16T08:25:18.638Z,8.97
2023-05-16T08:28:21.826Z,6.27
2023-05-16T08:31:24.994Z,6.80
2023-05-16T08:34:28.135Z,6.57
2023-05-16T08:37:33.891Z,7.03
2023-05-16T08:40:37.290Z,6.90
2023-05-16T08:43:42.822Z,6.33
2023-05-16T08:46:47.674Z,6.30
2023-05-16T08:49:53.010Z,8.07
2023-05-16T08:52:57.941Z,5.73
2023-05-16T08:56:02.066Z,6.77
2023-05-16T08:59:06.298Z,5.67
2023-05-16T09:02:10.160Z,5.37
2023-05-16T09:05:14.612Z,6.27
2023-05-16T09:08:20.462Z,5.70
2023-05-16T09:11:23.679Z,4.90
2023-05-16T09:14:26.884Z,4.43
2023-05-16T09:17:39.910Z,5.13
2023-05-16T09:20:47.897Z,4.53
2023-05-16T09:23:52.642Z,5.53
2023-05-16T09:26:55.997Z,5.10
2023-05-16T09:30:00.190Z,5.37
2023-05-16T09:33:03.705Z,5.53
2023-05-16T09:36:07.784Z,5.40
2023-05-16T09:39:16.693Z,5.13
2023-05-16T09:42:21.658Z,6.03
2023-05-16T09:45:24.968Z,6.60
2023-05-16T09:48:28.903Z,5.80
2023-05-16T09:51:32.419Z,5.50
2023-05-16T09:54:37.004Z,6.40
2023-05-16T09:57:40.903Z,6.53
2023-05-16T10:00:44.233Z,5.70
2023-05-16T10:03:47.696Z,6.03
2023-05-16T10:06:52.844Z,6.33
2023-05-16T10:09:58.291Z,6.13
2023-05-16T10:13:08.120Z,6.20
2023-05-16T10:16:13.224Z,6.23
2023-05-16T10:19:17.762Z,6.90
2023-05-16T10:22:23.125Z,6.23
2023-05-16T10:25:33.322Z,6.90
2023-05-16T10:28:37.308Z,6.97
2023-05-16T10:31:41.354Z,6.43
2023-05-16T10:34:46.715Z,6.80
2023-05-16T10:37:51.026Z,7.30
2023-05-16T10:40:56.245Z,5.90
2023-05-16T10:44:02.502Z,5.87
2023-05-16T10:47:06.045Z,5.90
2023-05-16T10:50:09.837Z,5.87
2023-05-16T10:53:21.015Z,6.43
2023-05-16T10:56:28.745Z,6.07
2023-05-16T10:59:41.959Z,6.50
2023-05-16T11:02:45.334Z,5.40
2023-05-16T11:05:54.272Z,5.87
2023-05-16T11:09:06.759Z,6.97
2023-05-16T11:12:11.387Z,5.67
2023-05-16T11:15:23.243Z,6.43
2023-05-16T11:18:26.363Z,6.60
2023-05-16T11:22:06.098Z,5.83
2023-05-16T11:25:10.940Z,4.90
2023-05-16T11:28:15.495Z,5.10
2023-05-16T11:31:19.881Z,5.00
2023-05-16T11:34:23.123Z,5.33
2023-05-16T11:37:26.474Z,5.07
2023-05-16T11:40:29.643Z,5.40
2023-05-16T11:43:41.788Z,5.53
2023-05-16T11:46:45.986Z,6.13
2023-05-16T11:49:49.673Z,5.00
2023-05-16T11:52:56.254Z,5.00
2023-05-16T11:56:02.261Z,5.73
2023-05-16T11:59:08.402Z,4.50
2023-05-16T12:02:11.767Z,3.93
2023-05-16T12:05:17.285Z,4.13
2023-05-16T12:08:21.876Z,4.43
2023-05-16T12:11:25.495Z,4.73
2023-05-16T12:14:30.160Z,3.90
2023-05-16T12:17:33.543Z,4.67
2023-05-16T12:20:37.329Z,3.90
2023-05-16T12:23:40.487Z,4.60
2023-05-16T12:26:44.753Z,4.07
2023-05-16T12:29:51.160Z,3.50
2023-05-16T12:32:56.645Z,3.50
2023-05-16T12:36:01.805Z,3.50
2023-05-16T12:39:05.402Z,3.40
2023-05-16T12:42:09.741Z,3.83
2023-05-16T12:45:18.221Z,2.90
2023-05-16T12:48:21.698Z,3.37
2023-05-16T12:51:24.877Z,3.83
2023-05-16T12:54:28.044Z,3.30
2023-05-16T12:57:33.754Z,3.40
2023-05-16T13:00:39.332Z,3.23
2023-05-16T13:03:42.534Z,3.00
2023-05-16T13:06:58.279Z,2.90
2023-05-16T13:10:02.102Z,3.23
2023-05-16T13:13:05.298Z,2.93
2023-05-16T13:16:10.465Z,2.13
2023-05-16T13:19:13.794Z,2.60
2023-05-16T13:22:17.067Z,2.90
2023-05-16T13:25:21.595Z,2.50
2023-05-16T13:28:24.775Z,2.70
2023-05-16T13:31:29.410Z,2.57
2023-05-16T13:34:32.658Z,2.30
2023-05-16T13:37:36.006Z,2.07
2023-05-16T13:40:39.176Z,2.30
2023-05-16T13:43:42.321Z,2.53
2023-05-16T13:46:47.030Z,2.40
2023-05-16T13:49:50.778Z,2.60
2023-05-16T13:52:54.059Z,3.00
2023-05-16T13:55:57.267Z,2.20
2023-05-16T13:59:06.881Z,2.23
2023-05-16T14:02:12.130Z,2.60
2023-05-16T14:05:15.321Z,2.33
2023-05-16T14:08:18.543Z,2.23
2023-05-16T14:11:28.446Z,2.60
2023-05-16T14:14:32.456Z,3.17
2023-05-16T14:17:37.013Z,2.40
2023-05-16T14:20:40.234Z,2.67
2023-05-16T14:23:43.424Z,2.50
2023-05-16T14:26:46.630Z,3.07
2023-05-16T14:29:49.792Z,2.83
2023-05-16T14:32:54.336Z,2.87
2023-05-16T14:35:57.527Z,2.70
2023-05-16T14:39:00.793Z,3.23
2023-05-16T14:42:06.197Z,3.00
2023-05-16T14:45:13.868Z,2.77
2023-05-16T14:48:21.484Z,3.40
2023-05-16T14:51:24.662Z,3.57
2023-05-16T14:54:28.010Z,2.57
2023-05-16T14:57:31.372Z,3.20
2023-05-16T15:00:34.692Z,3.53
2023-05-16T15:06:45.615Z,3.97
2023-05-16T15:09:51.009Z,3.80
2023-05-16T15:12:54.341Z,3.70
2023-05-16T15:15:57.983Z,3.33
2023-05-16T15:19:02.556Z,3.13
2023-05-16T15:22:07.876Z,3.43
2023-05-16T15:25:12.054Z,3.70
2023-05-16T15:28:15.210Z,4.40
2023-05-16T15:31:18.385Z,3.90
2023-05-16T15:34:22.948Z,3.73
2023-05-16T15:37:26.399Z,3.87
2023-05-16T15:40:29.894Z,3.93
2023-05-16T15:43:33.269Z,4.03
2023-05-16T15:46:36.567Z,3.63
2023-05-16T15:49:41.601Z,3.77
2023-05-16T15:52:44.892Z,3.67
2023-05-16T15:55:48.713Z,4.17
2023-05-16T15:58:51.906Z,3.70
2023-05-16T16:01:55.112Z,4.23
2023-05-16T16:04:59.698Z,4.10
2023-05-16T16:08:02.967Z,4.83
2023-05-16T16:11:06.275Z,4.50
2023-05-16T16:14:11.248Z,4.40
2023-05-16T16:17:16.578Z,4.57
2023-05-16T16:20:21.257Z,4.60
2023-05-16T16:23:24.413Z,4.30
2023-05-16T16:26:27.644Z,4.90
2023-05-16T16:29:30.933Z,4.73
2023-05-16T16:32:34.108Z,4.20
2023-05-16T16:35:38.679Z,3.80
2023-05-16T16:38:41.887Z,4.00
2023-05-16T16:41:45.102Z,4.50
2023-05-16T16:44:49.098Z,3.83
2023-05-16T16:47:52.642Z,4.77
2023-05-16T16:50:57.509Z,4.40
2023-05-16T16:54:00.642Z,3.80
2023-05-16T16:57:03.919Z,4.10
2023-05-16T17:00:08.940Z,4.40
2023-05-16T17:03:12.222Z,4.57
2023-05-16T17:06:16.752Z,4.70
2023-05-16T17:09:20.345Z,4.40
2023-05-16T17:12:23.551Z,4.80
2023-05-16T17:15:29.055Z,4.43
2023-05-16T17:18:34.806Z,4.80
2023-05-16T17:21:41.219Z,4.90
2023-05-16T17:24:45.604Z,4.67
2023-05-16T17:27:48.987Z,5.87
2023-05-16T17:30:52.121Z,4.60
2023-05-16T17:33:55.705Z,3.93
2023-05-16T17:37:00.625Z,4.10
2023-05-16T17:40:05.941Z,4.13
2023-05-16T17:43:09.434Z,4.07
2023-05-16T17:46:12.849Z,4.30
2023-05-16T17:49:16.149Z,4.53
2023-05-16T17:52:22.218Z,4.17
2023-05-16T17:55:25.619Z,3.83
2023-05-16T17:58:29.437Z,4.80
2023-05-16T18:01:33.188Z,3.87
2023-05-16T18:04:37.386Z,3.70
2023-05-16T18:07:42.113Z,3.60
2023-05-16T18:10:52.091Z,4.40
2023-05-16T18:13:55.672Z,4.57
2023-05-16T18:16:58.869Z,4.37
2023-05-16T18:20:09.051Z,3.90
2023-05-16T18:23:14.447Z,3.63
2023-05-16T18:26:22.330Z,4.10
2023-05-16T18:29:27.504Z,3.97
2023-05-16T18:32:31.983Z,5.03
2023-05-16T18:35:35.284Z,3.80
2023-05-16T18:38:39.872Z,3.37
2023-05-16T18:41:46.961Z,3.70
2023-05-16T18:44:51.315Z,3.27
2023-05-16T18:47:55.464Z,3.40
2023-05-16T18:50:59.158Z,2.77
2023-05-16T18:54:04.082Z,2.40
2023-05-16T18:57:08.749Z,2.87
2023-05-16T19:00:16.825Z,3.07
2023-05-16T19:03:22.127Z,3.30
2023-05-16T19:06:25.942Z,2.40
2023-05-16T19:09:32.237Z,2.40
2023-05-16T19:12:38.213Z,2.50
2023-05-16T19:15:41.564Z,2.60
2023-05-16T19:18:45.575Z,3.20
2023-05-16T19:21:49.078Z,2.23
2023-05-16T19:24:53.671Z,2.00
2023-05-16T19:27:57.895Z,2.10
2023-05-16T19:31:01.935Z,1.83
2023-05-16T19:34:05.344Z,1.87
2023-05-16T19:37:08.946Z,2.00
2023-05-16T19:40:17.064Z,1.30
2023-05-16T19:43:20.816Z,1.50
2023-05-16T19:46:24.349Z,1.53
2023-05-16T19:49:28.750Z,2.00
2023-05-16T19:52:32.125Z,1.50
2023-05-16T19:55:38.301Z,1.40
2023-05-16T19:58:43.877Z,1.47
2023-05-16T20:01:47.118Z,1.50
2023-05-16T20:04:50.634Z,1.20
2023-05-16T20:07:54.620Z,1.30
2023-05-16T20:10:59.226Z,1.50
2023-05-16T20:14:02.451Z,1.40
2023-05-16T20:17:05.990Z,1.20
2023-05-16T20:20:10.470Z,1.40
2023-05-16T20:23:13.611Z,1.40
2023-05-16T20:26:18.183Z,1.30
2023-05-16T20:29:21.420Z,1.37
2023-05-16T20:32:24.583Z,1.40
2023-05-16T20:35:27.830Z,1.50
2023-05-16T20:38:31.272Z,1.07
2023-05-16T20:41:35.921Z,1.53
2023-05-16T20:44:39.145Z,1.70
2023-05-16T20:47:42.416Z,1.13
2023-05-16T20:50:45.836Z,1.00
2023-05-16T20:53:48.988Z,0.90
2023-05-16T20:56:53.668Z,1.00
2023-05-16T20:59:56.870Z,1.10
2023-05-16T21:03:00.222Z,1.07
2023-05-16T21:06:03.753Z,1.03
2023-05-16T21:09:07.634Z,0.97
2023-05-16T21:12:12.166Z,1.13
2023-05-16T21:15:15.296Z,1.00
2023-05-16T21:18:18.492Z,1.10
2023-05-16T21:21:21.755Z,0.80
2023-05-16T21:24:24.958Z,1.10
2023-05-16T21:27:29.508Z,1.17
2023-05-16T21:30:32.632Z,1.07
2023-05-16T21:33:35.803Z,0.83
2023-05-16T21:36:39.011Z,0.90
2023-05-16T21:39:42.270Z,0.80
2023-05-16T21:42:46.721Z,0.90
2023-05-16T21:45:49.864Z,1.00
2023-05-16T21:48:53.032Z,0.90
2023-05-16T21:51:56.341Z,1.03
2023-05-16T21:54:59.511Z,1.33
2023-05-16T21:58:04.008Z,1.20
2023-05-16T22:01:07.550Z,0.80
2023-05-16T22:04:10.824Z,1.00
2023-05-16T22:07:14.083Z,0.80
2023-05-16T22:10:18.659Z,1.00
2023-05-16T22:13:23.246Z,1.03
2023-05-16T22:16:26.487Z,0.80
2023-05-16T22:19:29.652Z,1.10
2023-05-16T22:22:33.161Z,0.50
2023-05-16T22:25:36.380Z,0.60
2023-05-16T22:28:40.863Z,0.70
2023-05-16T22:31:44.065Z,0.50
2023-05-16T22:34:47.268Z,0.50
2023-05-16T22:37:50.433Z,0.53
2023-05-16T22:40:53.678Z,0.60
2023-05-16T22:43:58.434Z,0.50
2023-05-16T22:47:01.616Z,0.60
2023-05-16T22:50:05.199Z,0.60
2023-05-16T22:53:08.409Z,0.60
2023-05-16T22:56:11.667Z,0.60
2023-05-16T22:59:16.356Z,0.63
2023-05-16T23:02:20.857Z,0.40
2023-05-16T23:05:24.017Z,0.53
2023-05-16T23:08:27.168Z,0.60
2023-05-16T23:11:32.746Z,0.40
2023-05-16T23:14:37.301Z,0.47
2023-05-16T23:17:40.835Z,0.50
2023-05-16T23:20:44.106Z,0.50
2023-05-16T23:23:47.231Z,0.77
2023-05-16T23:26:50.432Z,0.57
2023-05-16T23:29:54.916Z,0.50
2023-05-16T23:32:58.181Z,0.60
2023-05-16T23:36:01.285Z,0.40
2023-05-16T23:39:04.569Z,0.50
2023-05-16T23:42:07.817Z,0.50
2023-05-16T23:45:12.968Z,0.40
2023-05-16T23:48:16.604Z,0.30
2023-05-16T23:51:19.774Z,0.30
2023-05-16T23:54:23.014Z,0.60
2023-05-16T23:57:26.108Z,0.50
